sensor_id;sensor_type;location;lat;lon;timestamp;P1;durP1;ratioP1;P2;durP2;ratioP2
52106;SDS011;38105;52.968;5.974;2024-01-07T00:00:01;13.93;;;7.40;;
52106;SDS011;38105;52.968;5.974;2024-01-07T00:02:28;8.10;;;4.50;;
52106;SDS011;38105;52.968;5.974;2024-01-07T00:04:55;13.33;;;8.70;;
52106;SDS011;38105;52.968;5.974;2024-01-07T00:07:21;11.23;;;6.37;;
52106;SDS011;38105;52.968;5.974;2024-01-07T00:09:47;8.97;;;6.13;;
52106;SDS011;38105;52.968;5.974;2024-01-07T00:12:12;7.07;;;5.00;;
52106;SDS011;38105;52.968;5.974;2024-01-07T00:14:38;10.67;;;5.00;;
52106;SDS011;38105;52.968;5.974;2024-01-07T00:17:04;4.93;;;3.23;;
52106;SDS011;38105;52.968;5.974;2024-01-07T00:19:29;4.83;;;3.93;;
52106;SDS011;38105;52.968;5.974;2024-01-07T00:22:00;10.17;;;6.33;;
52106;SDS011;38105;52.968;5.974;2024-01-07T00:24:26;5.80;;;3.70;;
52106;SDS011;38105;52.968;5.974;2024-01-07T00:26:54;8.47;;;6.00;;
52106;SDS011;38105;52.968;5.974;2024-01-07T00:29:19;8.57;;;5.83;;
52106;SDS011;38105;52.968;5.974;2024-01-07T00:31:45;12.03;;;6.13;;
52106;SDS011;38105;52.968;5.974;2024-01-07T00:34:11;11.10;;;6.17;;
52106;SDS011;38105;52.968;5.974;2024-01-07T00:36:36;7.17;;;5.50;;
52106;SDS011;38105;52.968;5.974;2024-01-07T00:39:02;12.23;;;8.93;;
52106;SDS011;38105;52.968;5.974;2024-01-07T00:41:28;6.27;;;4.07;;
52106;SDS011;38105;52.968;5.974;2024-01-07T00:43:55;9.17;;;5.20;;
52106;SDS011;38105;52.968;5.974;2024-01-07T00:46:20;11.33;;;8.07;;
52106;SDS011;38105;52.968;5.974;2024-01-07T00:48:46;7.40;;;4.80;;
52106;SDS011;38105;52.968;5.974;2024-01-07T00:51:12;21.23;;;5.60;;
52106;SDS011;38105;52.968;5.974;2024-01-07T00:53:37;9.93;;;4.67;;
52106;SDS011;38105;52.968;5.974;2024-01-07T00:56:03;8.77;;;4.07;;
52106;SDS011;38105;52.968;5.974;2024-01-07T00:58:29;15.60;;;5.47;;
52106;SDS011;38105;52.968;5.974;2024-01-07T01:00:55;15.33;;;7.63;;
52106;SDS011;38105;52.968;5.974;2024-01-07T01:03:20;17.03;;;8.73;;
52106;SDS011;38105;52.968;5.974;2024-01-07T01:05:46;12.07;;;5.37;;
52106;SDS011;38105;52.968;5.974;2024-01-07T01:08:12;9.67;;;5.23;;
52106;SDS011;38105;52.968;5.974;2024-01-07T01:10:37;10.43;;;6.73;;
52106;SDS011;38105;52.968;5.974;2024-01-07T01:13:03;7.20;;;5.00;;
52106;SDS011;38105;52.968;5.974;2024-01-07T01:15:29;11.93;;;9.77;;
52106;SDS011;38105;52.968;5.974;2024-01-07T01:17:54;12.07;;;6.13;;
52106;SDS011;38105;52.968;5.974;2024-01-07T01:20:20;8.83;;;5.07;;
52106;SDS011;38105;52.968;5.974;2024-01-07T01:22:46;13.70;;;6.93;;
52106;SDS011;38105;52.968;5.974;2024-01-07T01:25:11;11.33;;;5.90;;
52106;SDS011;38105;52.968;5.974;2024-01-07T01:27:40;17.67;;;10.13;;
52106;SDS011;38105;52.968;5.974;2024-01-07T01:30:06;23.03;;;8.73;;
52106;SDS011;38105;52.968;5.974;2024-01-07T01:32:32;30.83;;;12.63;;
52106;SDS011;38105;52.968;5.974;2024-01-07T01:34:58;11.07;;;6.50;;
52106;SDS011;38105;52.968;5.974;2024-01-07T01:37:23;6.60;;;4.77;;
52106;SDS011;38105;52.968;5.974;2024-01-07T01:39:49;9.07;;;6.90;;
52106;SDS011;38105;52.968;5.974;2024-01-07T01:42:15;10.83;;;5.20;;
52106;SDS011;38105;52.968;5.974;2024-01-07T01:44:40;7.20;;;5.33;;
52106;SDS011;38105;52.968;5.974;2024-01-07T01:47:07;11.93;;;6.97;;
52106;SDS011;38105;52.968;5.974;2024-01-07T01:49:33;10.97;;;5.07;;
52106;SDS011;38105;52.968;5.974;2024-01-07T01:52:02;8.27;;;4.43;;
52106;SDS011;38105;52.968;5.974;2024-01-07T01:54:28;13.80;;;6.67;;
52106;SDS011;38105;52.968;5.974;2024-01-07T01:56:54;13.60;;;6.17;;
52106;SDS011;38105;52.968;5.974;2024-01-07T01:59:19;20.73;;;8.80;;
52106;SDS011;38105;52.968;5.974;2024-01-07T02:01:46;17.40;;;5.97;;
52106;SDS011;38105;52.968;5.974;2024-01-07T02:04:12;24.20;;;7.60;;
52106;SDS011;38105;52.968;5.974;2024-01-07T02:06:40;21.67;;;7.53;;
52106;SDS011;38105;52.968;5.974;2024-01-07T02:09:06;20.00;;;7.53;;
52106;SDS011;38105;52.968;5.974;2024-01-07T02:11:31;22.20;;;7.30;;
52106;SDS011;38105;52.968;5.974;2024-01-07T02:13:57;21.30;;;6.63;;
52106;SDS011;38105;52.968;5.974;2024-01-07T02:16:23;22.53;;;7.53;;
52106;SDS011;38105;52.968;5.974;2024-01-07T02:18:49;33.83;;;11.60;;
52106;SDS011;38105;52.968;5.974;2024-01-07T02:21:15;29.90;;;8.83;;
52106;SDS011;38105;52.968;5.974;2024-01-07T02:23:41;19.50;;;5.90;;
52106;SDS011;38105;52.968;5.974;2024-01-07T02:26:06;19.70;;;5.17;;
52106;SDS011;38105;52.968;5.974;2024-01-07T02:28:32;32.73;;;9.13;;
52106;SDS011;38105;52.968;5.974;2024-01-07T02:30:58;30.07;;;8.93;;
52106;SDS011;38105;52.968;5.974;2024-01-07T02:33:24;28.67;;;7.50;;
52106;SDS011;38105;52.968;5.974;2024-01-07T02:35:50;30.60;;;8.40;;
52106;SDS011;38105;52.968;5.974;2024-01-07T02:38:16;102.90;;;27.93;;
52106;SDS011;38105;52.968;5.974;2024-01-07T02:40:41;74.13;;;19.73;;
52106;SDS011;38105;52.968;5.974;2024-01-07T02:43:07;94.00;;;25.47;;
52106;SDS011;38105;52.968;5.974;2024-01-07T02:45:33;125.73;;;35.33;;
52106;SDS011;38105;52.968;5.974;2024-01-07T02:47:59;129.70;;;36.00;;
52106;SDS011;38105;52.968;5.974;2024-01-07T02:50:25;120.97;;;32.53;;
52106;SDS011;38105;52.968;5.974;2024-01-07T02:52:50;121.27;;;33.93;;
52106;SDS011;38105;52.968;5.974;2024-01-07T02:55:17;89.57;;;23.83;;
52106;SDS011;38105;52.968;5.974;2024-01-07T02:57:43;65.00;;;17.40;;
52106;SDS011;38105;52.968;5.974;2024-01-07T03:00:09;59.70;;;15.47;;
52106;SDS011;38105;52.968;5.974;2024-01-07T03:02:35;61.67;;;15.87;;
52106;SDS011;38105;52.968;5.974;2024-01-07T03:05:01;61.27;;;16.83;;
52106;SDS011;38105;52.968;5.974;2024-01-07T03:07:27;58.40;;;16.40;;
52106;SDS011;38105;52.968;5.974;2024-01-07T03:09:53;34.10;;;9.47;;
52106;SDS011;38105;52.968;5.974;2024-01-07T03:12:18;38.30;;;10.50;;
52106;SDS011;38105;52.968;5.974;2024-01-07T03:14:44;44.93;;;11.80;;
52106;SDS011;38105;52.968;5.974;2024-01-07T03:17:10;34.23;;;9.20;;
52106;SDS011;38105;52.968;5.974;2024-01-07T03:19:39;44.17;;;11.60;;
52106;SDS011;38105;52.968;5.974;2024-01-07T03:22:05;37.60;;;11.17;;
52106;SDS011;38105;52.968;5.974;2024-01-07T03:24:32;49.30;;;13.80;;
52106;SDS011;38105;52.968;5.974;2024-01-07T03:26:58;45.22;;;13.10;;
52106;SDS011;38105;52.968;5.974;2024-01-07T03:29:23;42.20;;;11.93;;
52106;SDS011;38105;52.968;5.974;2024-01-07T03:31:49;25.97;;;8.43;;
52106;SDS011;38105;52.968;5.974;2024-01-07T03:34:16;33.87;;;9.97;;
52106;SDS011;38105;52.968;5.974;2024-01-07T03:36:41;51.47;;;14.23;;
52106;SDS011;38105;52.968;5.974;2024-01-07T03:39:07;70.33;;;19.07;;
52106;SDS011;38105;52.968;5.974;2024-01-07T03:41:33;69.73;;;18.33;;
52106;SDS011;38105;52.968;5.974;2024-01-07T03:43:59;58.20;;;15.40;;
52106;SDS011;38105;52.968;5.974;2024-01-07T03:46:24;46.37;;;11.67;;
52106;SDS011;38105;52.968;5.974;2024-01-07T03:48:50;47.57;;;12.87;;
52106;SDS011;38105;52.968;5.974;2024-01-07T03:51:16;29.97;;;7.87;;
52106;SDS011;38105;52.968;5.974;2024-01-07T03:53:41;41.93;;;10.47;;
52106;SDS011;38105;52.968;5.974;2024-01-07T03:56:07;23.20;;;7.87;;
52106;SDS011;38105;52.968;5.974;2024-01-07T03:58:33;28.97;;;9.57;;
52106;SDS011;38105;52.968;5.974;2024-01-07T04:01:00;31.97;;;8.97;;
52106;SDS011;38105;52.968;5.974;2024-01-07T04:03:26;33.27;;;9.37;;
52106;SDS011;38105;52.968;5.974;2024-01-07T04:05:52;68.57;;;18.67;;
52106;SDS011;38105;52.968;5.974;2024-01-07T04:08:17;72.57;;;19.75;;
52106;SDS011;38105;52.968;5.974;2024-01-07T04:10:43;63.17;;;16.75;;
52106;SDS011;38105;52.968;5.974;2024-01-07T04:13:08;36.00;;;9.47;;
52106;SDS011;38105;52.968;5.974;2024-01-07T04:15:34;77.70;;;20.23;;
52106;SDS011;38105;52.968;5.974;2024-01-07T04:18:03;40.10;;;10.47;;
52106;SDS011;38105;52.968;5.974;2024-01-07T04:20:30;72.67;;;19.67;;
52106;SDS011;38105;52.968;5.974;2024-01-07T04:22:56;108.03;;;29.60;;
52106;SDS011;38105;52.968;5.974;2024-01-07T04:25:22;62.40;;;16.33;;
52106;SDS011;38105;52.968;5.974;2024-01-07T04:27:51;64.05;;;17.10;;
52106;SDS011;38105;52.968;5.974;2024-01-07T04:30:17;68.47;;;18.00;;
52106;SDS011;38105;52.968;5.974;2024-01-07T04:32:43;74.00;;;20.65;;
52106;SDS011;38105;52.968;5.974;2024-01-07T04:35:08;51.60;;;13.07;;
52106;SDS011;38105;52.968;5.974;2024-01-07T04:37:35;74.40;;;20.50;;
52106;SDS011;38105;52.968;5.974;2024-01-07T04:40:00;124.93;;;34.35;;
52106;SDS011;38105;52.968;5.974;2024-01-07T04:42:27;128.15;;;34.92;;
52106;SDS011;38105;52.968;5.974;2024-01-07T04:44:53;126.82;;;35.58;;
52106;SDS011;38105;52.968;5.974;2024-01-07T04:47:31;127.25;;;36.22;;
52106;SDS011;38105;52.968;5.974;2024-01-07T04:50:01;125.38;;;35.55;;
52106;SDS011;38105;52.968;5.974;2024-01-07T04:52:27;124.35;;;33.88;;
52106;SDS011;38105;52.968;5.974;2024-01-07T04:54:53;124.87;;;35.43;;
52106;SDS011;38105;52.968;5.974;2024-01-07T04:57:20;122.47;;;33.72;;
52106;SDS011;38105;52.968;5.974;2024-01-07T04:59:46;119.07;;;32.92;;
52106;SDS011;38105;52.968;5.974;2024-01-07T05:02:13;117.38;;;32.13;;
52106;SDS011;38105;52.968;5.974;2024-01-07T05:04:38;119.63;;;33.22;;
52106;SDS011;38105;52.968;5.974;2024-01-07T05:07:04;119.15;;;33.30;;
52106;SDS011;38105;52.968;5.974;2024-01-07T05:09:31;117.47;;;32.38;;
52106;SDS011;38105;52.968;5.974;2024-01-07T05:11:57;120.25;;;33.00;;
52106;SDS011;38105;52.968;5.974;2024-01-07T05:14:23;124.57;;;35.03;;
52106;SDS011;38105;52.968;5.974;2024-01-07T05:16:48;121.13;;;33.33;;
52106;SDS011;38105;52.968;5.974;2024-01-07T05:19:14;119.95;;;33.05;;
52106;SDS011;38105;52.968;5.974;2024-01-07T05:21:40;119.82;;;33.55;;
52106;SDS011;38105;52.968;5.974;2024-01-07T05:24:05;120.47;;;32.95;;
52106;SDS011;38105;52.968;5.974;2024-01-07T05:26:37;119.43;;;32.42;;
52106;SDS011;38105;52.968;5.974;2024-01-07T05:29:04;118.65;;;33.53;;
52106;SDS011;38105;52.968;5.974;2024-01-07T05:31:30;121.13;;;34.17;;
52106;SDS011;38105;52.968;5.974;2024-01-07T05:33:55;120.10;;;33.45;;
52106;SDS011;38105;52.968;5.974;2024-01-07T05:36:21;120.22;;;33.33;;
52106;SDS011;38105;52.968;5.974;2024-01-07T05:38:47;119.40;;;32.95;;
52106;SDS011;38105;52.968;5.974;2024-01-07T05:41:12;119.22;;;33.20;;
52106;SDS011;38105;52.968;5.974;2024-01-07T05:43:38;116.53;;;32.28;;
52106;SDS011;38105;52.968;5.974;2024-01-07T05:46:04;120.30;;;33.90;;
52106;SDS011;38105;52.968;5.974;2024-01-07T05:48:29;119.27;;;34.23;;
52106;SDS011;38105;52.968;5.974;2024-01-07T05:51:05;120.50;;;33.97;;
52106;SDS011;38105;52.968;5.974;2024-01-07T05:53:31;119.57;;;33.60;;
52106;SDS011;38105;52.968;5.974;2024-01-07T05:55:56;118.20;;;32.37;;
52106;SDS011;38105;52.968;5.974;2024-01-07T05:58:22;119.93;;;33.93;;
52106;SDS011;38105;52.968;5.974;2024-01-07T06:00:48;115.53;;;31.90;;
52106;SDS011;38105;52.968;5.974;2024-01-07T06:03:13;113.80;;;32.00;;
52106;SDS011;38105;52.968;5.974;2024-01-07T06:05:39;112.17;;;31.57;;
52106;SDS011;38105;52.968;5.974;2024-01-07T06:08:05;113.20;;;31.17;;
52106;SDS011;38105;52.968;5.974;2024-01-07T06:10:31;112.57;;;31.35;;
52106;SDS011;38105;52.968;5.974;2024-01-07T06:12:57;113.43;;;31.15;;
52106;SDS011;38105;52.968;5.974;2024-01-07T06:15:22;111.40;;;30.93;;
52106;SDS011;38105;52.968;5.974;2024-01-07T06:17:48;111.57;;;30.57;;
52106;SDS011;38105;52.968;5.974;2024-01-07T06:20:14;113.10;;;31.23;;
52106;SDS011;38105;52.968;5.974;2024-01-07T06:22:39;113.40;;;31.67;;
52106;SDS011;38105;52.968;5.974;2024-01-07T06:25:05;114.80;;;31.97;;
52106;SDS011;38105;52.968;5.974;2024-01-07T06:27:31;117.07;;;32.60;;
52106;SDS011;38105;52.968;5.974;2024-01-07T06:29:57;118.83;;;33.83;;
52106;SDS011;38105;52.968;5.974;2024-01-07T06:32:22;116.35;;;32.00;;
52106;SDS011;38105;52.968;5.974;2024-01-07T06:34:50;116.43;;;32.23;;
52106;SDS011;38105;52.968;5.974;2024-01-07T06:37:17;118.50;;;32.90;;
52106;SDS011;38105;52.968;5.974;2024-01-07T06:39:42;115.30;;;32.17;;
52106;SDS011;38105;52.968;5.974;2024-01-07T06:42:08;116.33;;;32.30;;
52106;SDS011;38105;52.968;5.974;2024-01-07T06:44:33;118.10;;;32.63;;
52106;SDS011;38105;52.968;5.974;2024-01-07T06:46:59;120.23;;;34.27;;
52106;SDS011;38105;52.968;5.974;2024-01-07T06:49:25;118.80;;;33.33;;
52106;SDS011;38105;52.968;5.974;2024-01-07T06:51:50;118.60;;;32.97;;
52106;SDS011;38105;52.968;5.974;2024-01-07T06:54:16;116.97;;;32.63;;
52106;SDS011;38105;52.968;5.974;2024-01-07T06:56:41;118.60;;;32.87;;
52106;SDS011;38105;52.968;5.974;2024-01-07T06:59:08;119.27;;;33.33;;
52106;SDS011;38105;52.968;5.974;2024-01-07T07:01:33;117.80;;;33.70;;
52106;SDS011;38105;52.968;5.974;2024-01-07T07:03:59;115.27;;;32.00;;
52106;SDS011;38105;52.968;5.974;2024-01-07T07:06:25;114.87;;;31.60;;
52106;SDS011;38105;52.968;5.974;2024-01-07T07:08:51;114.87;;;32.17;;
52106;SDS011;38105;52.968;5.974;2024-01-07T07:11:17;116.60;;;32.13;;
52106;SDS011;38105;52.968;5.974;2024-01-07T07:13:42;114.83;;;31.50;;
52106;SDS011;38105;52.968;5.974;2024-01-07T07:16:08;116.37;;;32.57;;
52106;SDS011;38105;52.968;5.974;2024-01-07T07:18:33;117.83;;;32.37;;
52106;SDS011;38105;52.968;5.974;2024-01-07T07:20:59;118.47;;;32.47;;
52106;SDS011;38105;52.968;5.974;2024-01-07T07:23:25;116.43;;;32.27;;
52106;SDS011;38105;52.968;5.974;2024-01-07T07:25:51;113.40;;;31.13;;
52106;SDS011;38105;52.968;5.974;2024-01-07T07:28:16;117.10;;;32.28;;
52106;SDS011;38105;52.968;5.974;2024-01-07T07:30:42;115.90;;;31.67;;
52106;SDS011;38105;52.968;5.974;2024-01-07T07:33:08;114.43;;;31.50;;
52106;SDS011;38105;52.968;5.974;2024-01-07T07:35:34;115.32;;;31.58;;
52106;SDS011;38105;52.968;5.974;2024-01-07T07:37:59;115.30;;;31.50;;
52106;SDS011;38105;52.968;5.974;2024-01-07T07:40:25;112.83;;;30.70;;
52106;SDS011;38105;52.968;5.974;2024-01-07T07:42:50;113.67;;;31.10;;
52106;SDS011;38105;52.968;5.974;2024-01-07T07:45:16;112.70;;;30.53;;
52106;SDS011;38105;52.968;5.974;2024-01-07T07:47:42;115.93;;;32.00;;
52106;SDS011;38105;52.968;5.974;2024-01-07T07:50:09;113.43;;;31.20;;
52106;SDS011;38105;52.968;5.974;2024-01-07T07:52:35;114.30;;;32.67;;
52106;SDS011;38105;52.968;5.974;2024-01-07T07:55:01;114.25;;;31.30;;
52106;SDS011;38105;52.968;5.974;2024-01-07T07:57:27;114.27;;;31.53;;
52106;SDS011;38105;52.968;5.974;2024-01-07T07:59:53;113.20;;;31.20;;
52106;SDS011;38105;52.968;5.974;2024-01-07T08:02:19;112.20;;;31.53;;
52106;SDS011;38105;52.968;5.974;2024-01-07T08:04:46;112.00;;;31.43;;
52106;SDS011;38105;52.968;5.974;2024-01-07T08:07:12;110.97;;;31.03;;
52106;SDS011;38105;52.968;5.974;2024-01-07T08:09:38;109.90;;;32.13;;
52106;SDS011;38105;52.968;5.974;2024-01-07T08:12:07;108.27;;;30.87;;
52106;SDS011;38105;52.968;5.974;2024-01-07T08:14:32;107.38;;;30.20;;
52106;SDS011;38105;52.968;5.974;2024-01-07T08:16:58;107.30;;;30.25;;
52106;SDS011;38105;52.968;5.974;2024-01-07T08:19:24;107.10;;;30.52;;
52106;SDS011;38105;52.968;5.974;2024-01-07T08:21:49;106.25;;;30.23;;
52106;SDS011;38105;52.968;5.974;2024-01-07T08:24:15;105.88;;;30.15;;
52106;SDS011;38105;52.968;5.974;2024-01-07T08:26:41;105.88;;;30.20;;
52106;SDS011;38105;52.968;5.974;2024-01-07T08:29:06;105.30;;;30.55;;
52106;SDS011;38105;52.968;5.974;2024-01-07T08:31:32;106.70;;;30.38;;
52106;SDS011;38105;52.968;5.974;2024-01-07T08:33:58;105.60;;;30.13;;
52106;SDS011;38105;52.968;5.974;2024-01-07T08:36:23;104.32;;;30.27;;
52106;SDS011;38105;52.968;5.974;2024-01-07T08:38:49;103.90;;;30.05;;
52106;SDS011;38105;52.968;5.974;2024-01-07T08:41:15;101.40;;;29.42;;
52106;SDS011;38105;52.968;5.974;2024-01-07T08:43:41;106.78;;;30.63;;
52106;SDS011;38105;52.968;5.974;2024-01-07T08:46:07;104.88;;;30.13;;
52106;SDS011;38105;52.968;5.974;2024-01-07T08:48:33;103.20;;;29.73;;
52106;SDS011;38105;52.968;5.974;2024-01-07T08:50:59;104.95;;;30.20;;
52106;SDS011;38105;52.968;5.974;2024-01-07T08:53:25;112.53;;;31.38;;
52106;SDS011;38105;52.968;5.974;2024-01-07T08:55:50;115.15;;;32.28;;
52106;SDS011;38105;52.968;5.974;2024-01-07T08:58:16;117.07;;;32.22;;
52106;SDS011;38105;52.968;5.974;2024-01-07T09:00:42;95.18;;;26.48;;
52106;SDS011;38105;52.968;5.974;2024-01-07T09:03:09;49.88;;;14.65;;
52106;SDS011;38105;52.968;5.974;2024-01-07T09:05:35;129.13;;;34.85;;
52106;SDS011;38105;52.968;5.974;2024-01-07T09:08:01;92.28;;;25.35;;
52106;SDS011;38105;52.968;5.974;2024-01-07T09:10:27;66.05;;;18.08;;
52106;SDS011;38105;52.968;5.974;2024-01-07T09:12:53;79.70;;;21.45;;
52106;SDS011;38105;52.968;5.974;2024-01-07T09:15:18;88.05;;;23.58;;
52106;SDS011;38105;52.968;5.974;2024-01-07T09:17:45;113.95;;;30.58;;
52106;SDS011;38105;52.968;5.974;2024-01-07T09:20:11;61.30;;;16.63;;
52106;SDS011;38105;52.968;5.974;2024-01-07T09:22:38;70.53;;;19.20;;
52106;SDS011;38105;52.968;5.974;2024-01-07T09:25:04;112.20;;;30.10;;
52106;SDS011;38105;52.968;5.974;2024-01-07T09:27:30;34.17;;;9.97;;
52106;SDS011;38105;52.968;5.974;2024-01-07T09:29:57;41.40;;;11.93;;
52106;SDS011;38105;52.968;5.974;2024-01-07T09:32:23;34.53;;;10.73;;
52106;SDS011;38105;52.968;5.974;2024-01-07T09:34:49;44.93;;;13.57;;
52106;SDS011;38105;52.968;5.974;2024-01-07T09:37:14;42.10;;;11.95;;
52106;SDS011;38105;52.968;5.974;2024-01-07T09:39:41;44.22;;;12.77;;
52106;SDS011;38105;52.968;5.974;2024-01-07T09:42:09;44.30;;;11.53;;
52106;SDS011;38105;52.968;5.974;2024-01-07T09:44:41;41.80;;;11.07;;
52106;SDS011;38105;52.968;5.974;2024-01-07T09:47:14;52.47;;;14.13;;
52106;SDS011;38105;52.968;5.974;2024-01-07T09:49:40;36.78;;;10.52;;
52106;SDS011;38105;52.968;5.974;2024-01-07T09:52:08;70.33;;;18.43;;
52106;SDS011;38105;52.968;5.974;2024-01-07T09:54:38;57.97;;;15.13;;
52106;SDS011;38105;52.968;5.974;2024-01-07T09:57:04;55.43;;;15.97;;
52106;SDS011;38105;52.968;5.974;2024-01-07T09:59:31;74.57;;;19.35;;
52106;SDS011;38105;52.968;5.974;2024-01-07T10:01:58;42.15;;;10.93;;
52106;SDS011;38105;52.968;5.974;2024-01-07T10:04:24;63.45;;;16.45;;
52106;SDS011;38105;52.968;5.974;2024-01-07T10:06:51;111.03;;;29.33;;
52106;SDS011;38105;52.968;5.974;2024-01-07T10:09:19;109.93;;;29.63;;
52106;SDS011;38105;52.968;5.974;2024-01-07T10:11:48;77.33;;;21.37;;
52106;SDS011;38105;52.968;5.974;2024-01-07T10:14:14;71.57;;;18.48;;
52106;SDS011;38105;52.968;5.974;2024-01-07T10:16:40;102.27;;;27.07;;
52106;SDS011;38105;52.968;5.974;2024-01-07T10:19:07;98.77;;;26.30;;
52106;SDS011;38105;52.968;5.974;2024-01-07T10:21:32;104.90;;;28.50;;
52106;SDS011;38105;52.968;5.974;2024-01-07T10:24:11;111.37;;;29.73;;
52106;SDS011;38105;52.968;5.974;2024-01-07T10:26:38;37.57;;;10.53;;
52106;SDS011;38105;52.968;5.974;2024-01-07T10:29:05;39.70;;;11.97;;
52106;SDS011;38105;52.968;5.974;2024-01-07T10:31:32;113.00;;;30.47;;
52106;SDS011;38105;52.968;5.974;2024-01-07T10:33:57;22.87;;;7.33;;
52106;SDS011;38105;52.968;5.974;2024-01-07T10:36:26;23.90;;;7.23;;
52106;SDS011;38105;52.968;5.974;2024-01-07T10:38:52;61.75;;;16.63;;
52106;SDS011;38105;52.968;5.974;2024-01-07T10:41:19;46.22;;;13.07;;
52106;SDS011;38105;52.968;5.974;2024-01-07T10:43:48;39.13;;;11.33;;
52106;SDS011;38105;52.968;5.974;2024-01-07T10:46:15;59.70;;;15.23;;
52106;SDS011;38105;52.968;5.974;2024-01-07T10:48:51;60.70;;;16.60;;
52106;SDS011;38105;52.968;5.974;2024-01-07T10:51:20;38.97;;;10.57;;
52106;SDS011;38105;52.968;5.974;2024-01-07T10:53:46;41.67;;;11.90;;
52106;SDS011;38105;52.968;5.974;2024-01-07T10:56:22;27.87;;;9.23;;
52106;SDS011;38105;52.968;5.974;2024-01-07T10:58:52;48.23;;;13.60;;
52106;SDS011;38105;52.968;5.974;2024-01-07T11:01:19;32.97;;;9.47;;
52106;SDS011;38105;52.968;5.974;2024-01-07T11:04:01;27.37;;;8.77;;
52106;SDS011;38105;52.968;5.974;2024-01-07T11:12:21;46.67;;;12.83;;
52106;SDS011;38105;52.968;5.974;2024-01-07T11:14:47;35.53;;;10.00;;
52106;SDS011;38105;52.968;5.974;2024-01-07T11:17:39;48.83;;;13.53;;
52106;SDS011;38105;52.968;5.974;2024-01-07T11:20:10;33.90;;;9.73;;
52106;SDS011;38105;52.968;5.974;2024-01-07T11:22:39;39.77;;;10.90;;
52106;SDS011;38105;52.968;5.974;2024-01-07T11:25:27;53.53;;;14.57;;
52106;SDS011;38105;52.968;5.974;2024-01-07T11:27:58;71.75;;;20.50;;
52106;SDS011;38105;52.968;5.974;2024-01-07T11:30:26;55.23;;;15.13;;
52106;SDS011;38105;52.968;5.974;2024-01-07T11:33:01;70.57;;;19.13;;
52106;SDS011;38105;52.968;5.974;2024-01-07T11:38:21;45.00;;;12.27;;
52106;SDS011;38105;52.968;5.974;2024-01-07T11:40:47;24.33;;;8.37;;
52106;SDS011;38105;52.968;5.974;2024-01-07T11:43:15;33.07;;;10.63;;
52106;SDS011;38105;52.968;5.974;2024-01-07T11:45:40;31.77;;;10.00;;
52106;SDS011;38105;52.968;5.974;2024-01-07T11:48:06;28.47;;;9.63;;
52106;SDS011;38105;52.968;5.974;2024-01-07T11:50:32;28.43;;;8.90;;
52106;SDS011;38105;52.968;5.974;2024-01-07T11:52:58;37.30;;;11.40;;
52106;SDS011;38105;52.968;5.974;2024-01-07T11:55:24;26.23;;;8.07;;
52106;SDS011;38105;52.968;5.974;2024-01-07T11:57:51;24.37;;;10.53;;
52106;SDS011;38105;52.968;5.974;2024-01-07T12:00:17;31.23;;;9.63;;
52106;SDS011;38105;52.968;5.974;2024-01-07T12:02:43;31.77;;;9.90;;
52106;SDS011;38105;52.968;5.974;2024-01-07T12:05:10;40.70;;;12.20;;
52106;SDS011;38105;52.968;5.974;2024-01-07T12:07:37;52.93;;;14.60;;
52106;SDS011;38105;52.968;5.974;2024-01-07T12:10:06;62.57;;;17.27;;
52106;SDS011;38105;52.968;5.974;2024-01-07T12:12:35;40.50;;;12.47;;
52106;SDS011;38105;52.968;5.974;2024-01-07T12:15:01;18.30;;;7.03;;
52106;SDS011;38105;52.968;5.974;2024-01-07T12:17:29;15.60;;;6.63;;
52106;SDS011;38105;52.968;5.974;2024-01-07T12:19:56;21.37;;;7.90;;
52106;SDS011;38105;52.968;5.974;2024-01-07T12:22:22;29.57;;;10.37;;
52106;SDS011;38105;52.968;5.974;2024-01-07T12:24:59;16.40;;;6.70;;
52106;SDS011;38105;52.968;5.974;2024-01-07T12:27:25;21.60;;;9.97;;
52106;SDS011;38105;52.968;5.974;2024-01-07T12:29:55;19.70;;;9.10;;
52106;SDS011;38105;52.968;5.974;2024-01-07T12:32:22;20.67;;;9.03;;
52106;SDS011;38105;52.968;5.974;2024-01-07T12:34:47;21.90;;;7.57;;
52106;SDS011;38105;52.968;5.974;2024-01-07T12:37:13;22.03;;;9.23;;
52106;SDS011;38105;52.968;5.974;2024-01-07T12:39:40;16.40;;;6.43;;
52106;SDS011;38105;52.968;5.974;2024-01-07T12:42:05;11.83;;;6.90;;
52106;SDS011;38105;52.968;5.974;2024-01-07T12:44:32;11.07;;;5.20;;
52106;SDS011;38105;52.968;5.974;2024-01-07T12:46:58;17.53;;;6.53;;
52106;SDS011;38105;52.968;5.974;2024-01-07T12:49:24;18.60;;;10.60;;
52106;SDS011;38105;52.968;5.974;2024-01-07T12:51:50;21.57;;;8.00;;
52106;SDS011;38105;52.968;5.974;2024-01-07T12:54:16;29.27;;;9.93;;
52106;SDS011;38105;52.968;5.974;2024-01-07T12:56:41;13.87;;;5.57;;
52106;SDS011;38105;52.968;5.974;2024-01-07T12:59:07;8.17;;;6.93;;
52106;SDS011;38105;52.968;5.974;2024-01-07T13:01:33;18.30;;;7.23;;
52106;SDS011;38105;52.968;5.974;2024-01-07T13:04:01;25.23;;;8.93;;
52106;SDS011;38105;52.968;5.974;2024-01-07T13:06:27;27.50;;;8.57;;
52106;SDS011;38105;52.968;5.974;2024-01-07T13:08:53;38.90;;;11.50;;
52106;SDS011;38105;52.968;5.974;2024-01-07T13:11:19;79.97;;;21.50;;
52106;SDS011;38105;52.968;5.974;2024-01-07T13:13:45;110.47;;;31.03;;
52106;SDS011;38105;52.968;5.974;2024-01-07T13:16:11;77.00;;;20.07;;
52106;SDS011;38105;52.968;5.974;2024-01-07T13:18:37;81.43;;;21.47;;
52106;SDS011;38105;52.968;5.974;2024-01-07T13:21:03;38.63;;;12.23;;
52106;SDS011;38105;52.968;5.974;2024-01-07T13:23:31;37.60;;;11.53;;
52106;SDS011;38105;52.968;5.974;2024-01-07T13:25:58;24.97;;;8.33;;
52106;SDS011;38105;52.968;5.974;2024-01-07T13:28:24;66.60;;;19.83;;
52106;SDS011;38105;52.968;5.974;2024-01-07T13:30:50;45.43;;;13.53;;
52106;SDS011;38105;52.968;5.974;2024-01-07T13:33:16;64.33;;;18.27;;
52106;SDS011;38105;52.968;5.974;2024-01-07T13:35:42;58.73;;;17.63;;
52106;SDS011;38105;52.968;5.974;2024-01-07T13:38:08;82.23;;;22.00;;
52106;SDS011;38105;52.968;5.974;2024-01-07T13:40:34;44.50;;;12.93;;
52106;SDS011;38105;52.968;5.974;2024-01-07T13:43:00;31.07;;;11.07;;
52106;SDS011;38105;52.968;5.974;2024-01-07T13:45:28;29.33;;;11.00;;
52106;SDS011;38105;52.968;5.974;2024-01-07T13:47:53;10.03;;;6.17;;
52106;SDS011;38105;52.968;5.974;2024-01-07T13:50:19;5.03;;;4.63;;
52106;SDS011;38105;52.968;5.974;2024-01-07T13:52:45;7.70;;;7.03;;
52106;SDS011;38105;52.968;5.974;2024-01-07T13:55:11;12.43;;;5.67;;
52106;SDS011;38105;52.968;5.974;2024-01-07T13:57:38;9.47;;;8.57;;
52106;SDS011;38105;52.968;5.974;2024-01-07T14:00:04;6.87;;;6.30;;
52106;SDS011;38105;52.968;5.974;2024-01-07T14:02:34;7.73;;;7.07;;
52106;SDS011;38105;52.968;5.974;2024-01-07T14:05:06;6.67;;;6.00;;
52106;SDS011;38105;52.968;5.974;2024-01-07T14:07:34;7.47;;;6.87;;
52106;SDS011;38105;52.968;5.974;2024-01-07T14:09:59;8.17;;;7.50;;
52106;SDS011;38105;52.968;5.974;2024-01-07T14:12:28;5.67;;;5.17;;
52106;SDS011;38105;52.968;5.974;2024-01-07T14:14:53;9.70;;;6.40;;
52106;SDS011;38105;52.968;5.974;2024-01-07T14:17:19;4.57;;;4.20;;
52106;SDS011;38105;52.968;5.974;2024-01-07T14:19:45;7.07;;;6.47;;
52106;SDS011;38105;52.968;5.974;2024-01-07T14:22:13;6.17;;;5.60;;
52106;SDS011;38105;52.968;5.974;2024-01-07T14:24:38;5.90;;;5.40;;
52106;SDS011;38105;52.968;5.974;2024-01-07T14:27:04;6.90;;;6.27;;